createdAt,value
2019-05-02T00:00:47.945Z,8.47
2019-05-02T00:01:47.918Z,8.53
2019-05-02T00:02:47.896Z,8.50
2019-05-02T00:03:47.934Z,8.40
2019-05-02T00:04:51.027Z,8.44
2019-05-02T00:05:47.841Z,8.43
2019-05-02T00:06:47.821Z,8.40
2019-05-02T00:07:47.807Z,8.40
2019-05-02T00:08:47.787Z,8.43
2019-05-02T00:09:50.174Z,8.36
2019-05-02T00:10:47.746Z,8.41
2019-05-02T00:11:58.330Z,8.40
2019-05-02T00:12:47.703Z,8.38
2019-05-02T00:13:47.684Z,8.38
2019-05-02T00:14:47.666Z,8.38
2019-05-02T00:15:47.676Z,8.44
2019-05-02T00:16:49.276Z,8.40
2019-05-02T00:17:47.609Z,8.38
2019-05-02T00:18:47.606Z,8.43
2019-05-02T00:19:50.011Z,8.40
2019-05-02T00:20:47.561Z,8.38
2019-05-02T00:21:47.553Z,8.25
2019-05-02T00:22:48.056Z,8.30
2019-05-02T00:23:47.516Z,8.26
2019-05-02T00:24:47.475Z,8.30
2019-05-02T00:25:52.460Z,8.23
2019-05-02T00:26:47.432Z,8.33
2019-05-02T00:27:47.435Z,8.33
2019-05-02T00:28:48.051Z,8.23
2019-05-02T00:29:47.405Z,8.22
2019-05-02T00:30:47.488Z,8.22
2019-05-02T00:31:48.838Z,8.18
2019-05-02T00:32:47.313Z,8.26
2019-05-02T00:33:47.332Z,8.26
2019-05-02T00:34:47.277Z,8.20
2019-05-02T00:35:47.616Z,8.19
2019-05-02T00:36:47.240Z,8.25
2019-05-02T00:37:47.216Z,8.25
2019-05-02T00:38:47.225Z,8.19
2019-05-02T00:39:49.202Z,8.20
2019-05-02T00:40:47.167Z,8.19
2019-05-02T00:41:47.144Z,8.19
2019-05-02T00:42:47.126Z,8.07
2019-05-02T00:43:47.106Z,8.18
2019-05-02T00:44:48.239Z,8.12
2019-05-02T00:45:47.063Z,8.11
2019-05-02T00:46:47.061Z,8.10
2019-05-02T00:47:47.794Z,8.02
2019-05-02T00:48:47.002Z,8.10
2019-05-02T00:49:47.003Z,8.00
2019-05-02T00:50:50.644Z,8.04
2019-05-02T00:51:46.959Z,8.04
2019-05-02T00:52:46.926Z,8.05
2019-05-02T00:53:48.428Z,8.04
2019-05-02T00:54:46.906Z,8.07
2019-05-02T00:55:46.871Z,8.02
2019-05-02T00:56:46.850Z,8.00
2019-05-02T00:57:50.942Z,7.95
2019-05-02T00:58:46.806Z,8.07
2019-05-02T00:59:46.806Z,7.95
2019-05-02T01:00:48.576Z,8.04
2019-05-02T01:01:46.751Z,8.00
2019-05-02T01:02:46.737Z,8.00
2019-05-02T01:03:47.132Z,7.97
2019-05-02T01:04:46.717Z,8.00
2019-05-02T01:05:46.673Z,7.98
2019-05-02T01:06:49.385Z,8.02
2019-05-02T01:07:46.633Z,7.89
2019-05-02T01:08:46.616Z,7.95
2019-05-02T01:09:47.932Z,7.97
2019-05-02T01:10:46.582Z,7.95
2019-05-02T01:11:46.556Z,8.04
2019-05-02T01:12:46.546Z,8.00
2019-05-02T01:13:50.332Z,8.00
2019-05-02T01:14:46.517Z,7.95
2019-05-02T01:15:46.486Z,7.97
2019-05-02T01:16:49.438Z,7.93
2019-05-02T01:17:46.457Z,8.00
2019-05-02T01:18:46.416Z,7.95
2019-05-02T01:19:47.163Z,8.00
2019-05-02T01:20:46.376Z,7.97
2019-05-02T01:21:46.390Z,7.97
2019-05-02T01:22:47.215Z,7.98
2019-05-02T01:23:46.325Z,7.95
2019-05-02T01:24:46.302Z,8.01
2019-05-02T01:25:47.256Z,7.95
2019-05-02T01:28:28.367Z,7.98
2019-05-02T01:29:29.759Z,8.04
2019-05-02T01:30:28.325Z,8.01
2019-05-02T01:31:28.296Z,7.97
2019-05-02T01:32:30.182Z,7.97
2019-05-02T01:33:28.250Z,7.95
2019-05-02T01:34:28.227Z,7.93
2019-05-02T01:35:31.537Z,7.97
2019-05-02T01:36:28.196Z,7.98
2019-05-02T01:37:28.179Z,7.95
2019-05-02T01:38:31.824Z,8.00
2019-05-02T01:39:28.135Z,7.98
2019-05-02T01:40:28.116Z,8.04
2019-05-02T01:41:29.293Z,7.98
2019-05-02T01:42:39.406Z,7.98
2019-05-02T01:43:28.062Z,7.82
2019-05-02T01:44:31.037Z,7.89
2019-05-02T01:45:28.016Z,7.85
2019-05-02T01:46:27.998Z,7.85
2019-05-02T01:47:29.164Z,7.87
2019-05-02T01:48:27.969Z,7.85
2019-05-02T01:49:27.953Z,7.85
2019-05-02T01:50:33.487Z,7.85
2019-05-02T01:51:27.899Z,7.80
2019-05-02T01:52:27.894Z,7.86
2019-05-02T01:53:29.183Z,7.90
2019-05-02T01:54:27.855Z,7.82
2019-05-02T01:55:27.839Z,7.89
2019-05-02T01:56:28.537Z,7.80
2019-05-02T01:57:27.783Z,7.89
2019-05-02T01:58:27.763Z,7.87
2019-05-02T01:59:29.143Z,7.82
2019-05-02T02:00:27.722Z,7.82
2019-05-02T02:01:27.710Z,7.85
2019-05-02T02:02:28.056Z,7.83
2019-05-02T02:03:27.673Z,7.87
2019-05-02T02:04:27.644Z,7.80
2019-05-02T02:05:32.105Z,7.82
2019-05-02T02:06:27.609Z,7.86
2019-05-02T02:07:27.598Z,7.83
2019-05-02T02:08:32.333Z,7.93
2019-05-02T02:09:27.565Z,7.87
2019-05-02T02:10:27.529Z,7.87
2019-05-02T02:11:28.452Z,7.93
2019-05-02T02:12:27.514Z,7.90
2019-05-02T02:13:31.398Z,7.85
2019-05-02T02:14:27.450Z,7.87
2019-05-02T02:15:29.029Z,7.87
2019-05-02T02:16:27.417Z,7.85
2019-05-02T02:17:27.431Z,7.89
2019-05-02T02:18:29.291Z,8.01
2019-05-02T02:19:27.344Z,8.00
2019-05-02T02:20:27.328Z,8.07
2019-05-02T02:21:27.655Z,8.04
2019-05-02T02:22:27.285Z,8.08
2019-05-02T02:23:27.263Z,8.11
2019-05-02T02:24:27.258Z,8.07
2019-05-02T02:25:27.225Z,8.12
2019-05-02T02:26:27.244Z,8.19
2019-05-02T02:27:27.190Z,8.16
2019-05-02T02:28:32.081Z,8.19
2019-05-02T02:29:27.149Z,8.19
2019-05-02T02:30:27.130Z,8.26
2019-05-02T02:31:27.110Z,8.20
2019-05-02T02:32:28.650Z,8.20
2019-05-02T02:33:27.068Z,8.20
2019-05-02T02:34:29.575Z,8.25
2019-05-02T02:35:27.032Z,8.37
2019-05-02T02:36:34.973Z,8.43
2019-05-02T02:37:26.996Z,8.41
2019-05-02T02:38:33.685Z,8.43
2019-05-02T02:39:26.952Z,8.41
2019-05-02T02:40:32.567Z,8.40
2019-05-02T02:41:26.916Z,8.47
2019-05-02T02:42:31.670Z,8.50
2019-05-02T02:43:34.007Z,8.48
2019-05-02T02:44:26.853Z,8.52
2019-05-02T02:45:26.833Z,8.62
2019-05-02T02:46:30.732Z,8.56
2019-05-02T02:47:26.812Z,8.56
2019-05-02T02:48:26.778Z,8.61
2019-05-02T02:49:26.758Z,8.68
2019-05-02T02:50:26.745Z,8.66
2019-05-02T02:51:26.719Z,8.59
2019-05-02T02:52:26.726Z,8.71
2019-05-02T02:53:26.679Z,8.70
2019-05-02T02:54:26.662Z,8.70
2019-05-02T02:55:26.645Z,8.73
2019-05-02T02:56:26.623Z,8.76
2019-05-02T02:57:28.490Z,8.83
2019-05-02T02:58:26.584Z,8.71
2019-05-02T02:59:28.069Z,8.70
2019-05-02T03:00:26.546Z,8.76
2019-05-02T03:01:29.326Z,8.80
2019-05-02T03:02:26.511Z,8.81
2019-05-02T03:03:28.107Z,8.81
2019-05-02T03:04:26.465Z,8.80
2019-05-02T03:05:27.812Z,8.81
2019-05-02T03:06:26.424Z,8.73
2019-05-02T03:07:28.875Z,8.86
2019-05-02T03:08:26.388Z,8.87
2019-05-02T03:09:28.502Z,8.87
2019-05-02T03:10:26.373Z,8.84
2019-05-02T03:11:26.325Z,8.80
2019-05-02T03:12:26.311Z,8.87
2019-05-02T03:13:26.297Z,8.80
2019-05-02T03:14:26.267Z,8.83
2019-05-02T03:15:28.121Z,8.86
2019-05-02T03:16:26.246Z,8.91
2019-05-02T03:17:28.814Z,8.87
2019-05-02T03:18:26.987Z,8.86
2019-05-02T03:19:26.187Z,8.98
2019-05-02T03:20:26.158Z,8.98
2019-05-02T03:21:26.131Z,8.84
2019-05-02T03:22:26.124Z,9.01
2019-05-02T03:23:26.110Z,8.91
2019-05-02T03:24:26.074Z,8.84
2019-05-02T03:25:49.279Z,8.87
2019-05-02T03:26:26.040Z,8.95
2019-05-02T03:27:29.779Z,8.92
2019-05-02T03:28:26.027Z,8.84
2019-05-02T03:29:39.926Z,8.87
2019-05-02T03:30:35.884Z,8.84
2019-05-02T03:31:30.043Z,8.99
2019-05-02T03:32:34.675Z,8.86
2019-05-02T03:33:25.893Z,8.87
2019-05-02T03:34:45.528Z,8.81
2019-05-02T03:35:40.014Z,8.83
2019-05-02T03:36:30.754Z,8.81
2019-05-02T03:37:25.814Z,8.81
2019-05-02T03:38:32.518Z,8.86
2019-05-02T03:39:25.778Z,8.86
2019-05-02T03:40:32.177Z,8.92
2019-05-02T03:41:25.738Z,8.86
2019-05-02T03:42:25.723Z,8.87
2019-05-02T03:43:27.598Z,8.92
2019-05-02T03:44:26.581Z,8.80
2019-05-02T03:45:32.211Z,8.87
2019-05-02T03:46:25.641Z,8.86
2019-05-02T03:47:25.620Z,8.86
2019-05-02T03:48:27.862Z,8.89
2019-05-02T03:49:25.603Z,8.92
2019-05-02T03:50:32.785Z,8.86
2019-05-02T03:51:25.636Z,8.95
2019-05-02T03:52:25.525Z,8.81
2019-05-02T03:53:27.494Z,8.94
2019-05-02T03:54:25.487Z,8.96
2019-05-02T03:55:30.915Z,8.87
2019-05-02T03:56:25.450Z,8.84
2019-05-02T03:57:33.551Z,8.98
2019-05-02T03:58:25.418Z,8.86
2019-05-02T03:59:37.621Z,8.94
2019-05-02T04:00:25.362Z,8.94
2019-05-02T04:01:25.346Z,8.99
2019-05-02T04:02:25.330Z,8.98
2019-05-02T04:03:25.341Z,8.94
2019-05-02T04:04:25.291Z,9.01
2019-05-02T04:05:25.275Z,8.91
2019-05-02T04:06:25.289Z,8.83
2019-05-02T04:07:25.235Z,8.99
2019-05-02T04:08:25.210Z,8.91
2019-05-02T04:09:25.222Z,8.95
2019-05-02T04:10:25.171Z,9.04
2019-05-02T04:11:25.155Z,8.94
2019-05-02T04:12:25.134Z,8.84
2019-05-02T04:13:30.081Z,8.96
2019-05-02T04:14:37.193Z,8.91
2019-05-02T04:15:28.777Z,8.94
2019-05-02T04:16:25.051Z,8.92
2019-05-02T04:17:28.700Z,8.98
2019-05-02T04:18:25.009Z,9.02
2019-05-02T04:19:28.765Z,9.04
2019-05-02T04:20:24.997Z,9.05
2019-05-02T04:21:26.548Z,9.13
2019-05-02T04:22:24.930Z,9.02
2019-05-02T04:23:27.691Z,8.95
2019-05-02T04:24:24.895Z,9.02
2019-05-02T04:25:27.900Z,9.01
2019-05-02T04:26:24.854Z,9.01
2019-05-02T04:27:27.696Z,9.08
2019-05-02T04:28:24.818Z,9.01
2019-05-02T04:29:30.947Z,8.99
2019-05-02T04:30:24.775Z,8.99
2019-05-02T04:31:31.785Z,9.05
2019-05-02T04:32:24.737Z,9.14
2019-05-02T04:33:29.077Z,9.05
2019-05-02T04:34:24.704Z,9.05
2019-05-02T04:35:28.675Z,9.11
2019-05-02T04:36:24.663Z,9.10
2019-05-02T04:37:24.651Z,9.15
2019-05-02T04:38:41.756Z,9.18
2019-05-02T04:39:24.598Z,9.13
2019-05-02T04:40:24.580Z,9.18
2019-05-02T04:41:31.871Z,9.24
2019-05-02T04:42:24.571Z,9.14
2019-05-02T04:43:24.520Z,9.17
2019-05-02T04:44:32.356Z,9.18
2019-05-02T04:45:29.477Z,9.21
2019-05-02T04:46:28.197Z,9.13
2019-05-02T04:47:24.457Z,9.21
2019-05-02T04:48:24.462Z,9.29
2019-05-02T04:49:32.868Z,9.26
2019-05-02T04:50:25.508Z,9.21
2019-05-02T04:51:27.655Z,9.23
2019-05-02T04:52:24.342Z,9.28
2019-05-02T04:53:25.895Z,9.31
2019-05-02T04:54:29.042Z,9.26
2019-05-02T04:55:30.355Z,9.24
2019-05-02T04:56:24.271Z,9.28
2019-05-02T04:57:27.149Z,9.31
2019-05-02T04:58:29.625Z,9.23
2019-05-02T04:59:24.216Z,9.21
2019-05-02T05:00:24.206Z,9.29
2019-05-02T05:01:24.172Z,9.29
2019-05-02T05:02:34.218Z,9.28
2019-05-02T05:03:24.135Z,9.28
2019-05-02T05:04:24.117Z,9.29
2019-05-02T05:05:26.015Z,9.32
2019-05-02T05:06:24.091Z,9.35
2019-05-02T05:07:24.064Z,9.24
2019-05-02T05:08:26.497Z,9.47
2019-05-02T05:09:24.018Z,9.36
2019-05-02T05:10:23.992Z,9.46
2019-05-02T05:11:24.943Z,9.39
2019-05-02T05:12:23.972Z,9.42
2019-05-02T05:13:26.151Z,9.42
2019-05-02T05:14:24.462Z,9.51
2019-05-02T05:15:37.181Z,9.36
2019-05-02T05:16:23.881Z,9.46
2019-05-02T05:17:25.229Z,9.43
2019-05-02T05:18:23.838Z,9.39
2019-05-02T05:19:30.915Z,9.43
2019-05-02T05:20:23.805Z,9.46
2019-05-02T05:21:24.721Z,9.50
2019-05-02T05:22:24.447Z,9.54
2019-05-02T05:23:23.794Z,9.54
2019-05-02T05:24:25.023Z,9.50
2019-05-02T05:25:23.702Z,9.58
2019-05-02T05:26:23.681Z,9.50
2019-05-02T05:27:23.661Z,9.51
2019-05-02T05:28:23.646Z,9.51
2019-05-02T05:29:23.655Z,9.51
2019-05-02T05:30:23.603Z,9.57
2019-05-02T05:31:25.516Z,9.57
2019-05-02T05:32:23.569Z,9.54
2019-05-02T05:33:23.545Z,9.57
2019-05-02T05:34:28.526Z,9.60
2019-05-02T05:35:23.524Z,9.60
2019-05-02T05:36:29.205Z,9.58
2019-05-02T05:37:23.471Z,9.61
2019-05-02T05:38:28.566Z,9.61
2019-05-02T05:39:23.428Z,9.61
2019-05-02T05:40:30.399Z,9.75
2019-05-02T05:41:23.426Z,9.71
2019-05-02T05:42:30.168Z,9.75
2019-05-02T05:43:23.374Z,9.71
2019-05-02T05:44:27.804Z,9.84
2019-05-02T05:45:23.318Z,9.86
2019-05-02T05:46:23.290Z,9.83
2019-05-02T05:47:23.311Z,9.87
2019-05-02T05:48:23.259Z,9.86
2019-05-02T05:49:23.237Z,9.87
2019-05-02T05:50:23.223Z,9.84
2019-05-02T05:51:23.206Z,9.86
2019-05-02T05:52:23.178Z,9.83
2019-05-02T05:53:24.589Z,9.90
2019-05-02T05:54:23.140Z,9.90
2019-05-02T05:55:24.335Z,9.90
2019-05-02T05:56:23.097Z,10.02
2019-05-02T05:57:23.080Z,10.04
2019-05-02T05:58:23.070Z,10.05
2019-05-02T05:59:28.132Z,10.08
2019-05-02T06:00:23.400Z,10.05
2019-05-02T06:01:26.212Z,9.97
2019-05-02T06:02:22.988Z,10.05
2019-05-02T06:03:22.967Z,9.94
2019-05-02T06:04:24.053Z,10.01
2019-05-02T06:05:22.969Z,10.08
2019-05-02T06:06:24.460Z,10.04
2019-05-02T06:07:22.901Z,9.90
2019-05-02T06:08:22.867Z,9.99
2019-05-02T06:09:26.230Z,10.04
2019-05-02T06:10:22.846Z,9.96
2019-05-02T06:11:22.811Z,10.01
2019-05-02T06:12:26.064Z,10.07
2019-05-02T06:13:22.777Z,10.08
2019-05-02T06:14:24.968Z,10.20
2019-05-02T06:15:22.739Z,10.15
2019-05-02T06:16:22.716Z,10.23
2019-05-02T06:17:23.028Z,10.26
2019-05-02T06:18:22.682Z,10.20
2019-05-02T06:19:22.674Z,10.36
2019-05-02T06:20:25.787Z,10.40
2019-05-02T06:21:22.619Z,10.42
2019-05-02T06:22:24.525Z,10.42
2019-05-02T06:23:22.583Z,10.47
2019-05-02T06:24:22.581Z,10.53
2019-05-02T06:25:32.534Z,10.59
2019-05-02T06:26:22.553Z,10.52
2019-05-02T06:27:26.044Z,10.60
2019-05-02T06:28:22.484Z,10.51
2019-05-02T06:29:22.467Z,10.53
2019-05-02T06:30:22.448Z,10.48
2019-05-02T06:31:22.447Z,10.59
2019-05-02T06:32:22.432Z,10.40
2019-05-02T06:33:25.864Z,10.44
2019-05-02T06:34:22.373Z,10.44
2019-05-02T06:35:22.484Z,10.44
2019-05-02T06:36:22.334Z,10.36
2019-05-02T06:37:22.315Z,10.41
2019-05-02T06:38:22.926Z,10.41
2019-05-02T06:39:22.273Z,10.52
2019-05-02T06:40:22.257Z,10.47
2019-05-02T06:41:22.359Z,10.48
2019-05-02T06:42:22.217Z,10.55
2019-05-02T06:43:22.213Z,10.61
2019-05-02T06:44:23.725Z,10.76
2019-05-02T06:45:22.159Z,10.73
2019-05-02T06:46:27.781Z,10.79
2019-05-02T06:47:22.124Z,10.84
2019-05-02T06:48:22.106Z,10.79
2019-05-02T06:49:24.285Z,10.89
2019-05-02T06:50:24.642Z,10.89
2019-05-02T06:51:22.048Z,10.89
2019-05-02T06:52:22.033Z,10.88
2019-05-02T06:53:22.010Z,10.91
2019-05-02T06:54:22.782Z,10.79
2019-05-02T06:55:21.981Z,10.82
2019-05-02T06:56:21.955Z,10.81
2019-05-02T06:57:24.020Z,10.79
2019-05-02T06:58:21.916Z,10.84
2019-05-02T06:59:21.897Z,10.67
2019-05-02T07:00:34.742Z,10.73
2019-05-02T07:01:22.923Z,10.67
2019-05-02T07:02:21.840Z,10.78
2019-05-02T07:03:21.829Z,10.85
2019-05-02T07:04:23.066Z,10.88
2019-05-02T07:05:27.193Z,10.89
2019-05-02T07:06:21.778Z,10.82
2019-05-02T07:07:24.854Z,10.84
2019-05-02T07:08:21.731Z,10.91
2019-05-02T07:09:21.831Z,10.84
2019-05-02T07:10:25.440Z,10.89
2019-05-02T07:11:21.668Z,10.91
2019-05-02T07:12:21.648Z,10.89
2019-05-02T07:13:21.697Z,10.99
2019-05-02T07:14:23.666Z,10.97
2019-05-02T07:15:21.684Z,11.06
2019-05-02T07:16:36.806Z,11.04
2019-05-02T07:17:21.557Z,11.03
2019-05-02T07:18:21.542Z,11.09
2019-05-02T07:19:26.588Z,10.97
2019-05-02T07:20:21.509Z,10.92
2019-05-02T07:21:23.609Z,11.00
2019-05-02T07:22:21.475Z,11.06
2019-05-02T07:23:21.442Z,11.03
2019-05-02T07:24:25.327Z,11.04
2019-05-02T07:25:21.408Z,11.06
2019-05-02T07:26:23.236Z,11.11
2019-05-02T07:27:21.385Z,11.02
2019-05-02T07:28:23.827Z,11.04
2019-05-02T07:29:21.862Z,11.18
2019-05-02T07:30:21.306Z,11.15
2019-05-02T07:31:21.286Z,11.22
2019-05-02T07:32:24.903Z,11.17
2019-05-02T07:33:21.337Z,11.11
2019-05-02T07:34:21.232Z,11.10
2019-05-02T07:35:24.391Z,11.11
2019-05-02T07:36:21.193Z,11.09
2019-05-02T07:37:21.176Z,11.11
2019-05-02T07:38:25.624Z,11.15
2019-05-02T07:39:21.160Z,11.10
2019-05-02T07:40:21.120Z,11.11
2019-05-02T07:41:24.182Z,11.15
2019-05-02T07:42:21.075Z,11.22
2019-05-02T07:43:22.353Z,11.28
2019-05-02T07:44:21.065Z,11.40
2019-05-02T07:45:21.038Z,11.42
2019-05-02T07:46:22.222Z,11.37
2019-05-02T07:47:20.995Z,11.42
2019-05-02T07:48:20.974Z,11.46
2019-05-02T07:49:21.023Z,11.36
2019-05-02T07:50:20.941Z,11.42
2019-05-02T07:51:21.372Z,11.42
2019-05-02T07:52:20.912Z,11.35
2019-05-02T07:55:02.925Z,11.37
2019-05-02T07:56:02.901Z,11.42
2019-05-02T07:57:02.882Z,11.39
2019-05-02T07:58:06.880Z,11.33
2019-05-02T07:59:02.852Z,11.37
2019-05-02T08:00:02.864Z,11.44
2019-05-02T08:01:02.809Z,11.42
2019-05-02T08:02:02.793Z,11.29
2019-05-02T08:03:05.042Z,11.44
2019-05-02T08:04:04.752Z,11.37
2019-05-02T08:05:02.737Z,11.33
2019-05-02T08:06:02.713Z,11.39
2019-05-02T08:07:02.695Z,11.43
2019-05-02T08:08:02.676Z,11.54
2019-05-02T08:09:07.183Z,11.42
2019-05-02T08:10:02.664Z,11.60
2019-05-02T08:11:03.288Z,11.60
2019-05-02T08:12:02.606Z,11.60
2019-05-02T08:13:02.587Z,11.61
2019-05-02T08:14:02.567Z,11.52
2019-05-02T08:15:02.616Z,11.49
2019-05-02T08:16:02.549Z,11.57
2019-05-02T08:17:05.650Z,11.58
2019-05-02T08:18:02.487Z,11.61
2019-05-02T08:19:05.537Z,11.67
2019-05-02T08:20:05.078Z,11.69
2019-05-02T08:21:02.437Z,11.70
2019-05-02T08:22:04.666Z,11.70
2019-05-02T08:23:02.399Z,11.78
2019-05-02T08:24:03.613Z,11.70
2019-05-02T08:25:02.356Z,11.65
2019-05-02T08:26:02.357Z,11.62
2019-05-02T08:27:02.320Z,11.78
2019-05-02T08:28:04.635Z,11.69
2019-05-02T08:29:02.294Z,11.83
2019-05-02T08:30:04.436Z,11.83
2019-05-02T08:31:02.245Z,11.90
2019-05-02T08:32:02.228Z,11.96
2019-05-02T08:33:02.205Z,11.96
2019-05-02T08:34:05.222Z,11.91
2019-05-02T08:35:02.178Z,11.94
2019-05-02T08:36:02.173Z,11.83
2019-05-02T08:37:03.143Z,11.90
2019-05-02T08:38:02.123Z,11.99
2019-05-02T08:39:02.101Z,12.04
2019-05-02T08:40:05.396Z,11.95
2019-05-02T08:41:02.065Z,12.04
2019-05-02T08:42:02.088Z,12.09
2019-05-02T08:43:03.539Z,12.16
2019-05-02T08:44:02.018Z,12.04
2019-05-02T08:45:03.201Z,12.04
2019-05-02T08:46:01.971Z,11.94
2019-05-02T08:47:01.976Z,11.88
2019-05-02T08:48:05.278Z,11.95
2019-05-02T08:49:01.938Z,12.07
2019-05-02T08:50:01.903Z,11.90
2019-05-02T08:51:01.882Z,11.98
2019-05-02T08:52:01.864Z,11.99
2019-05-02T08:53:01.852Z,12.04
2019-05-02T08:54:01.825Z,12.12
2019-05-02T08:55:04.341Z,12.13
2019-05-02T08:56:01.790Z,12.09
2019-05-02T08:57:01.770Z,12.07
2019-05-02T08:58:06.611Z,12.19
2019-05-02T08:59:01.736Z,12.19
2019-05-02T09:00:01.747Z,12.12
2019-05-02T09:01:01.748Z,12.04
2019-05-02T09:02:01.716Z,12.14
2019-05-02T09:03:02.737Z,12.20
2019-05-02T09:04:01.661Z,12.32
2019-05-02T09:05:04.679Z,12.20
2019-05-02T09:06:05.939Z,12.28
2019-05-02T09:07:01.616Z,12.35
2019-05-02T09:08:01.590Z,12.42
2019-05-02T09:09:01.585Z,12.50
2019-05-02T09:10:05.782Z,12.59
2019-05-02T09:11:01.519Z,12.57
2019-05-02T09:12:12.040Z,12.67
2019-05-02T09:13:02.636Z,12.68
2019-05-02T09:14:02.126Z,12.93
2019-05-02T09:15:02.721Z,12.87
2019-05-02T09:16:05.229Z,12.92
2019-05-02T09:17:08.536Z,12.97
2019-05-02T09:18:02.813Z,13.14
2019-05-02T09:19:02.789Z,13.23
2019-05-02T09:20:05.090Z,13.17
2019-05-02T09:21:02.077Z,13.14
2019-05-02T09:22:02.589Z,13.12
2019-05-02T09:23:01.745Z,13.14
2019-05-02T09:24:02.513Z,13.12
2019-05-02T09:25:02.250Z,13.00
2019-05-02T09:26:02.571Z,12.82
2019-05-02T09:27:02.491Z,12.90
2019-05-02T09:28:01.855Z,13.11
2019-05-02T09:29:05.270Z,13.32
2019-05-02T09:30:02.717Z,13.45
2019-05-02T09:31:02.875Z,13.49
2019-05-02T09:32:02.157Z,13.67
2019-05-02T09:33:04.947Z,13.69
2019-05-02T09:34:02.731Z,13.77
2019-05-02T09:35:04.884Z,13.96
2019-05-02T09:36:02.363Z,14.12
2019-05-02T09:37:02.708Z,14.28
2019-05-02T09:38:01.738Z,14.32
2019-05-02T09:39:02.644Z,14.29
2019-05-02T09:40:02.197Z,14.35
2019-05-02T09:41:15.743Z,14.18
2019-05-02T09:42:02.148Z,14.07
2019-05-02T09:43:02.817Z,14.09
2019-05-02T09:44:02.754Z,14.18
2019-05-02T09:45:02.971Z,14.12
2019-05-02T09:46:02.525Z,14.24
2019-05-02T09:47:02.338Z,14.33
2019-05-02T09:48:05.218Z,14.65
2019-05-02T09:49:04.311Z,14.73
2019-05-02T09:50:02.766Z,14.99
2019-05-02T09:51:04.645Z,15.23
2019-05-02T09:52:03.107Z,15.44
2019-05-02T09:53:01.963Z,15.53
2019-05-02T09:54:02.599Z,15.38
2019-05-02T09:55:02.833Z,15.32
2019-05-02T09:56:02.170Z,15.14
2019-05-02T09:57:02.702Z,15.14
2019-05-02T09:58:02.503Z,15.35
2019-05-02T09:59:06.182Z,15.43
2019-05-02T10:00:02.199Z,15.67
2019-05-02T10:01:02.046Z,15.43
2019-05-02T10:02:02.013Z,15.23
2019-05-02T10:03:02.558Z,15.23
2019-05-02T10:04:02.360Z,15.32
2019-05-02T10:05:01.809Z,15.35
2019-05-02T10:06:02.811Z,15.60
2019-05-02T10:07:02.417Z,15.86
2019-05-02T10:08:03.018Z,15.75
2019-05-02T10:09:02.617Z,15.83
2019-05-02T10:10:03.174Z,15.59
2019-05-02T10:11:02.629Z,15.57
2019-05-02T10:12:02.017Z,15.72
2019-05-02T10:13:02.632Z,15.97
2019-05-02T10:14:02.339Z,16.27
2019-05-02T10:15:02.342Z,16.23
2019-05-02T10:16:02.069Z,16.04
2019-05-02T10:17:03.079Z,16.35
2019-05-02T10:18:08.681Z,16.58
2019-05-02T10:19:05.576Z,16.68
2019-05-02T10:20:02.053Z,16.78
2019-05-02T10:21:00.345Z,16.52
2019-05-02T10:22:01.914Z,16.49
2019-05-02T10:23:02.277Z,16.25
2019-05-02T10:24:01.728Z,16.14
2019-05-02T10:25:02.414Z,16.14
2019-05-02T10:26:00.273Z,15.60
2019-05-02T10:27:04.276Z,15.43
2019-05-02T10:28:02.114Z,15.49
2019-05-02T10:29:02.061Z,15.28
2019-05-02T10:30:08.212Z,15.07
2019-05-02T10:31:02.094Z,15.21
2019-05-02T10:32:01.795Z,15.38
2019-05-02T10:33:00.167Z,15.65
2019-05-02T10:34:02.336Z,15.89
2019-05-02T10:35:02.037Z,16.14
2019-05-02T10:36:00.122Z,16.24
2019-05-02T10:37:01.081Z,16.14
2019-05-02T10:38:00.090Z,16.08
2019-05-02T10:39:01.784Z,15.62
2019-05-02T10:40:00.056Z,15.17
2019-05-02T10:41:02.613Z,15.07
2019-05-02T10:42:01.965Z,15.17
2019-05-02T10:43:00.029Z,15.46
2019-05-02T10:44:02.066Z,15.38
2019-05-02T10:44:59.981Z,15.11
2019-05-02T10:46:01.782Z,15.11
2019-05-02T10:46:59.951Z,15.19
2019-05-02T10:48:02.167Z,15.44
2019-05-02T10:49:01.873Z,15.59
2019-05-02T10:50:02.146Z,15.83
2019-05-02T10:51:01.611Z,16.00
2019-05-02T10:51:59.874Z,16.21
2019-05-02T10:53:03.513Z,16.39
2019-05-02T10:53:59.850Z,16.41
2019-05-02T10:55:02.498Z,16.12
2019-05-02T10:55:59.803Z,16.21
2019-05-02T10:56:59.802Z,16.27
2019-05-02T10:58:01.509Z,16.25
2019-05-02T10:58:59.774Z,16.34
2019-05-02T10:59:59.741Z,16.49
2019-05-02T11:00:59.731Z,16.66
2019-05-02T11:01:59.704Z,16.73
2019-05-02T11:02:59.773Z,16.82
2019-05-02T11:04:02.045Z,17.03
2019-05-02T11:04:59.685Z,16.82
2019-05-02T11:06:05.441Z,16.58
2019-05-02T11:06:59.627Z,16.53
2019-05-02T11:08:04.653Z,16.81
2019-05-02T11:08:59.606Z,17.11
2019-05-02T11:10:03.191Z,17.23
2019-05-02T11:10:59.646Z,17.30
2019-05-02T11:11:59.550Z,17.23
2019-05-02T11:12:59.537Z,17.15
2019-05-02T11:14:01.020Z,17.08
2019-05-02T11:14:59.521Z,16.97
2019-05-02T11:16:01.617Z,16.67
2019-05-02T11:17:01.652Z,16.56
2019-05-02T11:17:59.464Z,16.67
2019-05-02T11:18:59.463Z,16.70
2019-05-02T11:20:01.720Z,16.97
2019-05-02T11:21:06.818Z,17.04
2019-05-02T11:21:59.399Z,16.85
2019-05-02T11:22:59.385Z,16.83
2019-05-02T11:24:00.203Z,16.94
2019-05-02T11:24:59.366Z,17.12
2019-05-02T11:25:59.383Z,17.28
2019-05-02T11:26:59.326Z,17.58
2019-05-02T11:28:05.491Z,17.78
2019-05-02T11:28:59.318Z,17.92
2019-05-02T11:29:59.293Z,18.21
2019-05-02T11:31:02.530Z,18.07
2019-05-02T11:31:59.297Z,18.29
2019-05-02T11:32:59.304Z,17.95
2019-05-02T11:33:59.277Z,18.02
2019-05-02T11:34:59.245Z,18.25
2019-05-02T11:35:59.303Z,18.52
2019-05-02T11:36:59.197Z,18.44
2019-05-02T11:37:59.239Z,18.10
2019-05-02T11:39:09.392Z,17.97
2019-05-02T11:40:01.528Z,17.82
2019-05-02T11:40:59.145Z,17.82
2019-05-02T11:41:59.098Z,17.63
2019-05-02T11:43:02.883Z,17.62
2019-05-02T11:43:59.065Z,17.93
2019-05-02T11:44:59.058Z,17.95
2019-05-02T11:46:02.397Z,17.97
2019-05-02T11:46:59.052Z,17.84
2019-05-02T11:48:01.979Z,17.79
2019-05-02T11:48:58.999Z,17.78
2019-05-02T11:49:59.007Z,17.07
2019-05-02T11:50:58.978Z,16.71
2019-05-02T11:52:01.452Z,16.73
2019-05-02T11:52:58.952Z,16.94
2019-05-02T11:53:59.209Z,17.11
2019-05-02T11:54:58.912Z,17.49
2019-05-02T11:56:03.707Z,17.56
2019-05-02T11:57:02.169Z,17.59
2019-05-02T11:58:00.825Z,17.72
2019-05-02T11:58:58.866Z,17.82
2019-05-02T11:59:59.340Z,18.17
2019-05-02T12:01:00.657Z,18.36
2019-05-02T12:02:00.133Z,18.63
2019-05-02T12:02:58.791Z,18.67
2019-05-02T12:03:58.779Z,18.76
2019-05-02T12:04:58.763Z,18.72
2019-05-02T12:05:58.746Z,17.96
2019-05-02T12:07:01.587Z,17.84
2019-05-02T12:08:02.615Z,17.63
2019-05-02T12:08:58.707Z,17.78
2019-05-02T12:09:58.691Z,17.95
2019-05-02T12:11:01.234Z,18.21
2019-05-02T12:11:58.660Z,18.26
2019-05-02T12:12:58.665Z,18.14
2019-05-02T12:13:58.631Z,17.79
2019-05-02T12:14:58.615Z,17.82
2019-05-02T12:15:58.634Z,17.89
2019-05-02T12:16:58.595Z,17.90
2019-05-02T12:17:58.574Z,17.86
2019-05-02T12:19:09.548Z,17.84
2019-05-02T12:19:58.546Z,17.78
2019-05-02T12:20:58.530Z,17.81
2019-05-02T12:21:58.517Z,17.74
2019-05-02T12:22:58.503Z,17.71
2019-05-02T12:23:58.492Z,17.78
2019-05-02T12:24:58.493Z,17.84
2019-05-02T12:25:58.458Z,17.92
2019-05-02T12:26:58.479Z,17.86
2019-05-02T12:27:58.429Z,18.07
2019-05-02T12:28:58.414Z,18.17
2019-05-02T12:29:59.374Z,18.27
2019-05-02T12:30:58.394Z,18.15
2019-05-02T12:31:58.408Z,18.27
2019-05-02T12:32:58.395Z,18.45
2019-05-02T12:33:58.348Z,18.51
2019-05-02T12:34:58.345Z,18.67
2019-05-02T12:35:58.629Z,18.60
2019-05-02T12:36:58.320Z,18.67
2019-05-02T12:37:58.294Z,18.67
2019-05-02T12:38:58.295Z,18.81
2019-05-02T12:39:58.257Z,19.07
2019-05-02T12:40:58.296Z,19.32
2019-05-02T12:41:58.573Z,19.51
2019-05-02T12:42:58.214Z,19.59
2019-05-02T12:43:58.195Z,19.40
2019-05-02T12:44:58.194Z,19.48
2019-05-02T12:45:58.167Z,19.23
2019-05-02T12:46:58.170Z,19.16
2019-05-02T12:47:58.164Z,19.00
2019-05-02T12:48:58.129Z,18.91
2019-05-02T12:49:58.112Z,18.78
2019-05-02T12:50:58.107Z,18.73
2019-05-02T12:51:58.093Z,18.62
2019-05-02T12:52:58.080Z,18.62
2019-05-02T12:53:58.097Z,18.44
2019-05-02T12:54:58.048Z,18.37
2019-05-02T12:55:58.034Z,18.36
2019-05-02T12:56:58.025Z,18.37
2019-05-02T12:57:58.005Z,18.54
2019-05-02T12:58:58.006Z,18.52
2019-05-02T12:59:57.981Z,18.82
2019-05-02T13:00:57.962Z,18.99
2019-05-02T13:01:57.970Z,19.19
2019-05-02T13:02:57.936Z,19.08
2019-05-02T13:03:57.924Z,18.87
2019-05-02T13:04:57.932Z,18.76
2019-05-02T13:05:57.898Z,18.65
2019-05-02T13:06:57.882Z,18.75
2019-05-02T13:07:57.889Z,18.85